UPSVAC Airport Information Service

Singapore Changi Airport

ICAO: WSSS Country: Singapore, AS
Latitude: 1.35019 Longitude: 103.994
Latest Arrival : UPS5405 (VHHH-WSSS) Latest Departure : UPS9076(A) (WSSS-EDDK)


WX CaptureLIVE
Data provided by noaa.gov | Fetched at 13:00:01

METAR : WSSS 251230Z 35010KT 9999 FEW018 BKN300 26/23 Q1009 NOSIG

TAF : WSSS 251100Z 2512/2618 01010KT 9999 FEW015CB SCT020 TEMPO 2606/2609 3000 TSRA FEW012CB BKN015


Runway Data for WSSS
Data provided by openaviationdata.com

Runway ID Mag Var Hdg Length Elevation Surface ILS Freq ILS Id ILS Slope
02L 0 22° 13152 ft 22 ft Bituminous 110.9 ICW 3
02C 0 22° 13179 ft 22 ft Bituminous 108.3 ICE 3
20R 0 202° 13152 ft 22 ft Bituminous 108.9 ICH 3
20C 0 202° 13179 ft 22 ft Bituminous 109.7 ICC 3

Singapore Changi Airport, Singapore, AS
Use only for reference purposes



Not for navigational purposes.